This is the latest recevied weather packets stored in our database for station/object MM9SQL. If no packets are shown the sender has not sent any weather packets the latest 10 day(s).
| Time | Temp. | Humidity | Pressure | Rain* | Wind** | Luminosity | Snow |
|---|---|---|---|---|---|---|---|
| 1777885812 | 10.56° C | 61% | 1013.1 hPa | 0 mm | - | - | - |
| 1777885505 | 10.56° C | 61% | 1013.2 hPa | 0 mm | - | - | - |
| 1777885207 | 10° C | 61% | 1013.2 hPa | 0 mm | - | - | - |
| 1777883107 | 10° C | 64% | 1013.1 hPa | 0 mm | - | - | - |
| 1777882808 | 9.44° C | 63% | 1013.1 hPa | 0 mm | - | - | - |
| 1777880708 | 8.89° C | 68% | 1013.2 hPa | 0 mm | - | - | - |
| 1777877106 | 7.78° C | 74% | 1013.2 hPa | 0 mm | - | - | - |
| 1777876206 | 7.22° C | 75% | 1013.1 hPa | 0 mm | - | - | - |
| 1777875314 | 6.67° C | 77% | 1013.1 hPa | 0 mm | - | - | - |
| 1777873210 | 4.44° C | 81% | 1013.1 hPa | 0 mm | - | - | - |
| 1777871108 | 3.33° C | 84% | 1013 hPa | 0 mm | - | - | - |
| 1777861804 | 2.78° C | 85% | 1013.5 hPa | 0 mm | - | - | - |
| 1777860303 | 3.33° C | 85% | 1013.6 hPa | 0 mm | - | - | - |
| 1777844104 | 7.78° C | 84% | 1013.9 hPa | 0 mm | - | - | - |
| 1777843812 | 7.78° C | 84% | 1014 hPa | 0 mm | - | - | - |
| 1777842004 | 7.78° C | 83% | 1014 hPa | 0 mm | - | - | - |
| 1777839609 | 8.33° C | 82% | 1013.9 hPa | 0 mm | - | - | - |
| 1777839006 | 8.33° C | 81% | 1013.7 hPa | 0 mm | - | - | - |
| 1777838416 | 8.33° C | 81% | 1013.6 hPa | 0 mm | - | - | - |
| 1777837204 | 8.89° C | 80% | 1013.5 hPa | 0 mm | - | - | - |
| 1777836007 | 8.89° C | 78% | 1013.2 hPa | 0 mm | - | - | - |
| 1777834209 | 10° C | 76% | 1013 hPa | 0 mm | - | - | - |
| 1777832705 | 10.56° C | 75% | 1013 hPa | 0 mm | - | - | - |
| 1777832412 | 10° C | 75% | 1013 hPa | 0 mm | - | - | - |
| 1777830603 | 9.44° C | 75% | 1013 hPa | 0 mm | - | - | - |
* Rain latest hour (hover to see other rain measurements)
** Current wind speed in m/s (hover to see current wind gust speed)